createdAt,value
2018-09-20T00:01:26.919Z,13.33
2018-09-20T00:03:56.293Z,13.36
2018-09-20T00:06:25.653Z,13.35
2018-09-20T00:08:55.091Z,13.36
2018-09-20T00:11:24.465Z,13.30
2018-09-20T00:13:53.947Z,13.23
2018-09-20T00:16:23.472Z,13.22
2018-09-20T00:18:53.009Z,13.11
2018-09-20T00:21:22.434Z,13.13
2018-09-20T00:23:51.726Z,13.14
2018-09-20T00:26:21.113Z,13.08
2018-09-20T00:28:50.522Z,13.09
2018-09-20T00:31:19.776Z,13.13
2018-09-20T00:33:49.230Z,13.14
2018-09-20T00:36:18.570Z,13.08
2018-09-20T00:38:47.904Z,12.96
2018-09-20T00:41:17.664Z,12.88
2018-09-20T00:43:47.075Z,12.94
2018-09-20T00:46:16.416Z,12.83
2018-09-20T00:48:45.633Z,12.79
2018-09-20T00:51:15.001Z,12.83
2018-09-20T00:53:44.332Z,12.82
2018-09-20T00:56:13.624Z,12.83
2018-09-20T00:58:43.575Z,12.95
2018-09-20T01:01:12.831Z,12.91
2018-09-20T01:03:42.211Z,12.90
2018-09-20T01:06:11.658Z,12.74
2018-09-20T01:08:41.814Z,12.72
2018-09-20T01:11:11.196Z,12.65
2018-09-20T01:13:40.679Z,12.59
2018-09-20T01:16:10.255Z,12.60
2018-09-20T01:18:39.326Z,12.63
2018-09-20T01:21:08.927Z,12.61
2018-09-20T01:23:38.300Z,12.64
2018-09-20T01:26:07.615Z,12.66
2018-09-20T01:28:36.778Z,12.63
2018-09-20T01:31:05.826Z,12.59
2018-09-20T01:33:34.873Z,12.51
2018-09-20T01:36:04.310Z,12.27
2018-09-20T01:38:33.663Z,12.44
2018-09-20T01:41:03.924Z,12.39
2018-09-20T01:43:32.914Z,12.42
2018-09-20T01:46:02.053Z,12.38
2018-09-20T01:48:31.186Z,12.36
2018-09-20T01:51:00.685Z,12.38
2018-09-20T01:53:29.718Z,12.43
2018-09-20T01:55:59.412Z,12.49
2018-09-20T01:58:28.522Z,12.36
2018-09-20T02:00:57.768Z,12.31
2018-09-20T02:03:26.789Z,12.32
2018-09-20T02:05:55.772Z,12.24
2018-09-20T02:08:24.827Z,12.17
2018-09-20T02:10:54.301Z,12.20
2018-09-20T02:13:23.436Z,12.27
2018-09-20T02:15:52.520Z,12.31
2018-09-20T02:18:21.522Z,12.24
2018-09-20T02:20:50.537Z,12.20
2018-09-20T02:23:20.142Z,12.11
2018-09-20T02:25:49.163Z,11.96
2018-09-20T02:28:18.196Z,12.10
2018-09-20T02:30:47.717Z,12.00
2018-09-20T02:33:17.187Z,12.02
2018-09-20T02:35:47.021Z,12.10
2018-09-20T02:38:16.393Z,12.04
2018-09-20T02:40:45.719Z,11.99
2018-09-20T02:43:15.102Z,11.93
2018-09-20T02:45:44.059Z,11.94
2018-09-20T02:48:13.057Z,12.00
2018-09-20T02:50:42.279Z,11.85
2018-09-20T02:53:11.449Z,11.78
2018-09-20T02:55:40.791Z,11.80
2018-09-20T02:58:10.123Z,11.75
2018-09-20T03:00:39.222Z,11.77
2018-09-20T03:03:08.218Z,11.81
2018-09-20T03:05:37.620Z,11.68
2018-09-20T03:08:06.955Z,11.63
2018-09-20T03:10:36.412Z,11.64
2018-09-20T03:13:05.439Z,11.61
2018-09-20T03:15:34.487Z,11.58
2018-09-20T03:18:03.591Z,11.58
2018-09-20T03:20:37.118Z,11.58
2018-09-20T03:23:06.142Z,11.58
2018-09-20T03:25:35.737Z,11.64
2018-09-20T03:28:05.103Z,11.72
2018-09-20T03:30:34.585Z,11.66
2018-09-20T03:33:03.456Z,11.77
2018-09-20T03:35:32.817Z,11.70
2018-09-20T03:38:02.373Z,11.68
2018-09-20T03:40:31.822Z,11.56
2018-09-20T03:43:01.138Z,11.61
2018-09-20T03:45:30.361Z,11.59
2018-09-20T03:48:00.204Z,11.62
2018-09-20T03:50:30.620Z,11.48
2018-09-20T03:52:59.922Z,11.51
2018-09-20T03:55:29.141Z,11.40
2018-09-20T03:57:58.594Z,11.35
2018-09-20T04:00:27.939Z,11.32
2018-09-20T04:02:57.378Z,11.33
2018-09-20T04:05:26.749Z,11.33
2018-09-20T04:07:56.243Z,11.30
2018-09-20T04:10:25.675Z,11.37
2018-09-20T04:12:55.030Z,11.40
2018-09-20T04:15:24.815Z,11.43
2018-09-20T04:17:54.283Z,11.32
2018-09-20T04:20:23.999Z,11.33
2018-09-20T04:22:53.550Z,11.39
2018-09-20T04:25:23.047Z,11.48
2018-09-20T04:27:52.578Z,11.44
2018-09-20T04:30:22.655Z,11.26
2018-09-20T04:33:02.144Z,11.35
2018-09-20T04:35:32.363Z,11.49
2018-09-20T04:38:01.837Z,11.50
2018-09-20T04:40:30.911Z,11.58
2018-09-20T04:43:00.170Z,11.68
2018-09-20T04:45:29.403Z,11.46
2018-09-20T04:47:58.369Z,11.48
2018-09-20T04:50:27.504Z,11.53
2018-09-20T04:52:56.604Z,11.57
2018-09-20T04:55:25.685Z,11.55
2018-09-20T04:57:54.844Z,11.57
2018-09-20T05:00:23.988Z,11.50
2018-09-20T05:02:53.005Z,11.60
2018-09-20T05:05:22.114Z,11.57
2018-09-20T05:07:51.125Z,11.63
2018-09-20T05:10:20.177Z,11.60
2018-09-20T05:12:49.146Z,11.51
2018-09-20T05:15:18.212Z,11.48
2018-09-20T05:17:47.189Z,11.39
2018-09-20T05:20:16.324Z,11.26
2018-09-20T05:22:45.276Z,11.34
2018-09-20T05:25:14.371Z,11.43
2018-09-20T05:27:43.537Z,11.37
2018-09-20T05:30:12.632Z,11.26
2018-09-20T05:32:41.737Z,11.48
2018-09-20T05:35:10.724Z,11.56
2018-09-20T05:37:39.818Z,11.57
2018-09-20T05:40:08.833Z,11.39
2018-09-20T05:42:38.046Z,11.28
2018-09-20T05:45:07.372Z,11.32
2018-09-20T05:47:36.445Z,11.48
2018-09-20T05:50:05.741Z,11.66
2018-09-20T05:52:34.810Z,11.78
2018-09-20T05:55:03.830Z,11.85
2018-09-20T05:57:32.871Z,11.74
2018-09-20T06:00:01.958Z,11.79
2018-09-20T06:02:31.035Z,11.90
2018-09-20T06:05:00.091Z,11.90
2018-09-20T06:07:29.498Z,11.97
2018-09-20T06:09:58.707Z,12.04
2018-09-20T06:12:27.696Z,12.06
2018-09-20T06:14:56.865Z,11.98
2018-09-20T06:17:26.162Z,11.89
2018-09-20T06:19:55.950Z,12.10
2018-09-20T06:22:25.012Z,12.28
2018-09-20T06:24:54.104Z,12.26
2018-09-20T06:27:23.155Z,12.25
2018-09-20T06:29:52.274Z,12.40
2018-09-20T06:32:21.415Z,12.20
2018-09-20T06:34:50.506Z,12.50
2018-09-20T06:37:19.716Z,12.70
2018-09-20T06:39:48.791Z,12.77
2018-09-20T06:42:17.760Z,13.03
2018-09-20T06:44:46.911Z,13.22
2018-09-20T06:47:15.886Z,13.27
2018-09-20T06:49:51.008Z,13.64
2018-09-20T06:52:20.057Z,14.24
2018-09-20T06:54:50.088Z,14.51
2018-09-20T06:57:19.222Z,14.35
2018-09-20T06:59:48.276Z,13.97
2018-09-20T07:02:17.351Z,13.78
2018-09-20T07:04:46.455Z,14.06
2018-09-20T07:07:15.436Z,14.16
2018-09-20T07:09:44.472Z,14.04
2018-09-20T07:12:13.515Z,14.24
2018-09-20T07:14:42.503Z,14.50
2018-09-20T07:17:11.650Z,14.52
2018-09-20T07:19:40.624Z,14.34
2018-09-20T07:22:09.711Z,14.33
2018-09-20T07:24:38.785Z,14.42
2018-09-20T07:27:07.792Z,14.70
2018-09-20T07:29:36.865Z,15.25
2018-09-20T07:32:05.810Z,15.09
2018-09-20T07:34:34.788Z,15.42
2018-09-20T07:37:03.800Z,15.90
2018-09-20T07:39:32.854Z,16.13
2018-09-20T07:42:01.914Z,16.40
2018-09-20T07:44:31.207Z,16.94
2018-09-20T07:47:00.445Z,16.81
2018-09-20T07:49:29.386Z,16.94
2018-09-20T07:51:58.430Z,16.96
2018-09-20T07:54:27.405Z,16.79
2018-09-20T07:56:56.499Z,17.38
2018-09-20T07:59:25.578Z,17.84
2018-09-20T08:01:54.689Z,17.87
2018-09-20T08:04:24.496Z,17.89
2018-09-20T08:06:53.514Z,18.17
2018-09-20T08:09:22.514Z,18.30
2018-09-20T08:11:51.570Z,17.89
2018-09-20T08:14:20.648Z,18.17
2018-09-20T08:16:49.696Z,18.58
2018-09-20T08:19:18.686Z,18.47
2018-09-20T08:21:47.756Z,18.82
2018-09-20T08:24:16.840Z,19.08
2018-09-20T08:26:45.907Z,19.53
2018-09-20T08:29:14.972Z,18.77
2018-09-20T08:31:43.929Z,19.24
2018-09-20T08:34:12.962Z,19.39
2018-09-20T08:36:41.987Z,19.81
2018-09-20T08:39:12.590Z,19.35
2018-09-20T08:41:41.559Z,20.31
2018-09-20T08:44:10.729Z,20.01
2018-09-20T08:46:39.719Z,19.68
2018-09-20T08:49:08.922Z,20.10
2018-09-20T08:51:37.886Z,20.53
2018-09-20T08:54:07.276Z,20.69
2018-09-20T08:56:37.387Z,20.14
2018-09-20T08:59:06.824Z,20.74
2018-09-20T09:01:36.555Z,20.53
2018-09-20T09:04:05.954Z,21.06
2018-09-20T09:06:35.422Z,20.92
2018-09-20T09:09:06.993Z,21.15
2018-09-20T09:11:36.414Z,21.49
2018-09-20T09:14:05.501Z,20.80
2018-09-20T09:16:34.597Z,20.57
2018-09-20T09:19:03.882Z,20.90
2018-09-20T09:21:33.182Z,21.32
2018-09-20T09:24:02.513Z,21.57
2018-09-20T09:26:32.336Z,21.60
2018-09-20T09:29:01.790Z,21.67
2018-09-20T09:31:31.442Z,22.16
2018-09-20T09:34:00.874Z,22.25
2018-09-20T09:36:30.230Z,21.93
2018-09-20T09:38:59.682Z,22.00
2018-09-20T09:41:29.176Z,21.89
2018-09-20T09:43:58.465Z,22.89
2018-09-20T09:46:27.417Z,22.88
2018-09-20T09:48:56.528Z,22.28
2018-09-20T09:51:25.510Z,22.39
2018-09-20T09:53:54.616Z,22.53
2018-09-20T09:56:23.722Z,23.05
2018-09-20T09:58:52.782Z,22.93
2018-09-20T10:01:21.767Z,23.43
2018-09-20T10:03:50.904Z,23.17
2018-09-20T10:06:20.035Z,23.18
2018-09-20T10:08:49.104Z,22.24
2018-09-20T10:11:18.150Z,23.28
2018-09-20T10:13:47.271Z,23.86
2018-09-20T10:16:43.585Z,23.54
2018-09-20T10:19:12.630Z,23.94
2018-09-20T10:21:41.594Z,23.35
2018-09-20T10:24:10.618Z,23.85
2018-09-20T10:26:39.565Z,23.67
2018-09-20T10:29:08.615Z,23.74
2018-09-20T10:31:37.664Z,23.90
2018-09-20T10:34:07.453Z,24.36
2018-09-20T10:36:36.467Z,24.53
2018-09-20T10:39:07.816Z,24.22
2018-09-20T10:41:36.858Z,24.44
2018-09-20T10:44:05.897Z,24.48
2018-09-20T10:46:35.203Z,24.42
2018-09-20T10:49:04.321Z,24.94
2018-09-20T10:51:33.436Z,25.22
2018-09-20T10:54:02.620Z,24.93
2018-09-20T10:56:31.708Z,24.82
2018-09-20T10:59:00.672Z,24.80
2018-09-20T11:01:29.792Z,25.07
2018-09-20T11:03:58.933Z,25.08
2018-09-20T11:06:28.204Z,24.28
2018-09-20T11:08:57.575Z,24.12
2018-09-20T11:11:26.763Z,24.68
2018-09-20T11:13:55.707Z,24.51
2018-09-20T11:16:24.748Z,24.75
2018-09-20T11:18:53.768Z,25.22
2018-09-20T11:21:22.805Z,25.53
2018-09-20T11:23:51.815Z,25.71
2018-09-20T11:26:20.814Z,25.36
2018-09-20T11:28:49.845Z,26.11
2018-09-20T11:31:18.903Z,26.30
2018-09-20T11:33:47.935Z,26.54
2018-09-20T11:36:16.963Z,25.89
2018-09-20T11:38:46.027Z,25.99
2018-09-20T11:41:15.544Z,26.49
2018-09-20T11:43:44.915Z,26.71
2018-09-20T11:46:14.422Z,26.56
2018-09-20T11:48:43.825Z,26.75
2018-09-20T11:51:13.284Z,26.79
2018-09-20T11:53:42.641Z,26.11
2018-09-20T11:56:12.139Z,26.19
2018-09-20T11:58:41.513Z,26.18
2018-09-20T12:01:11.059Z,26.56
2018-09-20T12:03:40.568Z,26.02
2018-09-20T12:06:10.021Z,26.27
2018-09-20T12:08:40.325Z,26.68
2018-09-20T12:11:09.733Z,26.48
2018-09-20T12:13:39.870Z,26.22
2018-09-20T12:16:08.907Z,26.06
2018-09-20T12:18:37.902Z,26.65
2018-09-20T12:21:07.028Z,26.70
2018-09-20T12:23:35.985Z,26.71
2018-09-20T12:26:05.009Z,26.95
2018-09-20T12:28:34.628Z,26.80
2018-09-20T12:31:04.046Z,26.59
2018-09-20T12:33:33.440Z,26.52
2018-09-20T12:36:03.091Z,26.69
2018-09-20T12:38:32.130Z,26.49
2018-09-20T12:41:01.150Z,26.49
2018-09-20T12:43:30.313Z,27.20
2018-09-20T12:45:59.620Z,27.32
2018-09-20T12:48:28.725Z,27.08
2018-09-20T12:50:57.885Z,26.96
2018-09-20T12:53:27.903Z,26.79
2018-09-20T12:55:57.285Z,26.88
2018-09-20T12:58:32.036Z,27.00
2018-09-20T13:01:01.384Z,26.71
2018-09-20T13:03:30.406Z,27.32
2018-09-20T13:05:59.599Z,27.12
2018-09-20T13:08:28.627Z,27.22
2018-09-20T13:10:57.677Z,27.32
2018-09-20T13:13:26.856Z,27.30
2018-09-20T13:15:55.883Z,27.23
2018-09-20T13:18:24.970Z,26.87
2018-09-20T13:20:54.075Z,27.35
2018-09-20T13:23:23.131Z,27.30
2018-09-20T13:25:52.310Z,27.05
2018-09-20T13:28:21.408Z,27.18
2018-09-20T13:30:51.762Z,27.40
2018-09-20T13:33:21.321Z,26.81
2018-09-20T13:35:50.426Z,26.76
2018-09-20T13:38:20.016Z,26.89
2018-09-20T13:40:49.890Z,26.95
2018-09-20T13:43:19.563Z,26.95
2018-09-20T13:45:48.820Z,27.04
2018-09-20T13:48:17.962Z,27.09
2018-09-20T13:50:47.224Z,27.12
2018-09-20T13:53:16.398Z,26.48
2018-09-20T13:55:46.021Z,26.90
2018-09-20T13:58:15.923Z,27.14
2018-09-20T14:00:45.116Z,27.28
2018-09-20T14:03:14.244Z,27.10
2018-09-20T14:05:44.687Z,27.03
2018-09-20T14:08:14.583Z,27.12
2018-09-20T14:10:43.850Z,27.02
2018-09-20T14:13:13.022Z,27.19
2018-09-20T14:15:42.136Z,27.10
2018-09-20T14:18:11.179Z,27.02
2018-09-20T14:20:40.204Z,26.89
2018-09-20T14:23:09.930Z,26.87
2018-09-20T14:25:39.569Z,27.03
2018-09-20T14:28:09.067Z,27.16
2018-09-20T14:30:38.249Z,26.81
2018-09-20T14:33:07.371Z,26.80
2018-09-20T14:35:36.400Z,26.93
2018-09-20T14:38:05.502Z,26.95
2018-09-20T14:40:35.422Z,26.89
2018-09-20T14:43:06.263Z,26.80
2018-09-20T14:45:36.377Z,26.49
2018-09-20T14:48:05.493Z,26.62
2018-09-20T14:50:34.539Z,26.77
2018-09-20T14:53:04.352Z,26.56
2018-09-20T14:55:33.378Z,26.45
2018-09-20T14:58:02.966Z,26.43
2018-09-20T15:00:32.039Z,26.32
2018-09-20T15:03:02.605Z,26.18
2018-09-20T15:05:31.845Z,26.10
2018-09-20T15:08:01.283Z,26.22
2018-09-20T15:10:31.273Z,26.10
2018-09-20T15:13:01.996Z,26.02
2018-09-20T15:15:31.160Z,25.93
2018-09-20T15:18:00.411Z,25.94
2018-09-20T15:20:29.479Z,25.79
2018-09-20T15:22:59.117Z,25.76
2018-09-20T15:25:28.256Z,25.58
2018-09-20T15:27:57.353Z,25.26
2018-09-20T15:30:26.475Z,25.23
2018-09-20T15:32:55.523Z,25.19
2018-09-20T15:35:24.875Z,24.93
2018-09-20T15:37:54.294Z,24.33
2018-09-20T15:40:23.611Z,24.01
2018-09-20T15:42:52.619Z,23.72
2018-09-20T15:45:21.800Z,23.63
2018-09-20T15:47:50.810Z,23.26
2018-09-20T15:50:19.904Z,23.21
2018-09-20T15:52:48.970Z,23.06
2018-09-20T15:55:17.981Z,22.98
2018-09-20T15:57:47.155Z,22.96
2018-09-20T16:00:16.330Z,22.78
2018-09-20T16:02:45.766Z,22.59
2018-09-20T16:05:15.164Z,22.72
2018-09-20T16:07:44.672Z,22.50
2018-09-20T16:10:13.702Z,22.28
2018-09-20T16:12:42.840Z,22.43
2018-09-20T16:15:12.116Z,22.16
2018-09-20T16:17:41.509Z,22.05
2018-09-20T16:20:10.550Z,22.08
2018-09-20T16:22:39.609Z,21.97
2018-09-20T16:25:08.875Z,22.02
2018-09-20T16:27:38.311Z,21.85
2018-09-20T16:30:51.204Z,21.73
2018-09-20T16:33:47.968Z,21.77
2018-09-20T16:36:29.498Z,21.69
2018-09-20T16:39:05.362Z,21.55
2018-09-20T16:41:39.142Z,21.48
2018-09-20T16:44:08.192Z,21.40
2018-09-20T16:46:37.303Z,21.32
2018-09-20T16:49:06.797Z,21.14
2018-09-20T16:51:35.854Z,21.07
2018-09-20T16:54:04.933Z,20.98
2018-09-20T16:56:33.972Z,20.99
2018-09-20T16:59:03.073Z,20.85
2018-09-20T17:01:32.064Z,20.89
2018-09-20T17:04:01.124Z,20.79
2018-09-20T17:06:30.418Z,20.68
2018-09-20T17:08:59.516Z,20.74
2018-09-20T17:11:29.603Z,20.65
2018-09-20T17:14:01.797Z,20.59
2018-09-20T17:16:31.042Z,20.57
2018-09-20T17:19:00.119Z,20.54
2018-09-20T17:21:32.496Z,20.43
2018-09-20T17:24:01.642Z,20.28
2018-09-20T17:26:31.147Z,20.20
2018-09-20T17:29:00.373Z,20.14
2018-09-20T17:31:29.651Z,20.11
2018-09-20T17:33:58.725Z,20.10
2018-09-20T17:36:33.175Z,20.05
2018-09-20T17:39:03.231Z,19.92
2018-09-20T17:41:35.997Z,19.85
2018-09-20T17:44:07.088Z,19.67
2018-09-20T17:46:36.263Z,19.74
2018-09-20T17:49:05.639Z,19.66
2018-09-20T17:51:35.478Z,19.51
2018-09-20T17:54:04.828Z,19.48
2018-09-20T17:56:34.790Z,19.43
2018-09-20T17:59:04.098Z,19.29
2018-09-20T18:01:33.405Z,19.37
2018-09-20T18:04:02.519Z,19.13
2018-09-20T18:06:31.628Z,19.15
2018-09-20T18:09:00.749Z,19.08
2018-09-20T18:11:31.418Z,18.95
2018-09-20T18:14:00.807Z,18.98
2018-09-20T18:16:31.064Z,18.89
2018-09-20T18:19:00.180Z,18.73
2018-09-20T18:21:29.637Z,18.74
2018-09-20T18:23:59.526Z,18.31
2018-09-20T18:26:35.491Z,18.36
2018-09-20T18:29:05.223Z,18.41
2018-09-20T18:31:34.769Z,18.23
2018-09-20T18:34:04.070Z,18.17
2018-09-20T18:36:39.311Z,17.95
2018-09-20T18:39:11.604Z,17.95
2018-09-20T18:41:42.083Z,17.74
2018-09-20T18:44:11.768Z,18.02
2018-09-20T18:46:41.171Z,17.79
2018-09-20T18:49:10.254Z,17.61
2018-09-20T18:51:39.622Z,17.60
2018-09-20T18:54:08.937Z,17.54
2018-09-20T18:56:38.082Z,17.64
2018-09-20T18:59:07.237Z,17.63
2018-09-20T19:01:37.356Z,17.34
2018-09-20T19:04:06.371Z,17.38
2018-09-20T19:06:35.473Z,17.41
2018-09-20T19:09:05.111Z,17.40
2018-09-20T19:11:34.520Z,17.36
2018-09-20T19:14:04.679Z,17.37
2018-09-20T19:16:34.418Z,17.50
2018-09-20T19:19:04.875Z,17.20
2018-09-20T19:21:35.575Z,17.15
2018-09-20T19:24:04.646Z,17.17
2018-09-20T19:26:34.560Z,17.00
2018-09-20T19:29:04.452Z,17.11
2018-09-20T19:31:33.473Z,16.94
2018-09-20T19:34:03.033Z,16.89
2018-09-20T19:36:32.704Z,16.56
2018-09-20T19:39:01.989Z,16.72
2018-09-20T19:41:31.291Z,16.75
2018-09-20T19:44:00.521Z,16.72
2018-09-20T19:46:30.912Z,16.68
2018-09-20T19:49:00.614Z,16.51
2018-09-20T19:51:30.937Z,16.37
2018-09-20T19:54:03.511Z,16.50
2018-09-20T19:56:35.967Z,16.50
2018-09-20T19:59:05.105Z,16.32
2018-09-20T20:01:35.430Z,16.10
2018-09-20T20:04:04.681Z,16.14
2018-09-20T20:06:37.504Z,16.21
2018-09-20T20:09:12.258Z,16.15
2018-09-20T20:11:42.794Z,16.43
2018-09-20T20:14:12.388Z,16.28
2018-09-20T20:16:41.786Z,16.14
2018-09-20T20:19:11.371Z,16.10
2018-09-20T20:21:40.489Z,15.97
2018-09-20T20:24:10.406Z,15.84
2018-09-20T20:26:39.611Z,15.89
2018-09-20T20:29:09.713Z,15.97
2018-09-20T20:31:39.220Z,15.90
2018-09-20T20:34:08.660Z,15.91
2018-09-20T20:36:37.795Z,15.73
2018-09-20T20:39:08.747Z,15.73
2018-09-20T20:41:39.111Z,15.66
2018-09-20T20:44:10.197Z,15.58
2018-09-20T20:46:39.368Z,15.62
2018-09-20T20:49:09.311Z,15.61
2018-09-20T20:51:39.480Z,15.48
2018-09-20T20:54:08.797Z,15.43
2018-09-20T20:56:38.888Z,15.43
2018-09-20T20:59:08.342Z,15.38
2018-09-20T21:01:39.839Z,15.31
2018-09-20T21:04:09.409Z,15.23
2018-09-20T21:06:38.706Z,15.19
2018-09-20T21:09:09.173Z,15.27
2018-09-20T21:11:38.322Z,15.40
2018-09-20T21:14:07.751Z,15.18
2018-09-20T21:16:37.344Z,15.08
2018-09-20T21:19:06.610Z,15.15
2018-09-20T21:21:36.657Z,15.07
2018-09-20T21:24:06.715Z,14.93
2018-09-20T21:26:36.288Z,15.01
2018-09-20T21:29:05.729Z,14.96
2018-09-20T21:31:35.037Z,14.97
2018-09-20T21:34:04.104Z,14.87
2018-09-20T21:36:33.253Z,14.83
2018-09-20T21:39:02.371Z,14.90
2018-09-20T21:41:31.360Z,14.74
2018-09-20T21:44:00.827Z,14.75
2018-09-20T21:46:29.965Z,14.81
2018-09-20T21:48:59.146Z,14.76
2018-09-20T21:51:28.871Z,14.72
2018-09-20T21:53:57.904Z,14.71
2018-09-20T21:56:26.925Z,14.69
2018-09-20T21:58:56.069Z,14.69
2018-09-20T22:01:25.110Z,14.63
2018-09-20T22:03:54.098Z,14.54
2018-09-20T22:06:23.214Z,14.52
2018-09-20T22:08:52.351Z,14.44
2018-09-20T22:11:21.570Z,14.52
2018-09-20T22:13:50.653Z,14.46
2018-09-20T22:16:19.695Z,14.35
2018-09-20T22:18:50.903Z,14.36
2018-09-20T22:21:20.060Z,14.23
2018-09-20T22:23:49.191Z,14.28
2018-09-20T22:26:19.108Z,14.23
2018-09-20T22:28:52.474Z,14.17
2018-09-20T22:31:21.973Z,14.25
2018-09-20T22:33:51.492Z,14.05
2018-09-20T22:36:20.585Z,14.12
2018-09-20T22:38:50.712Z,14.10
2018-09-20T22:41:19.784Z,13.91
2018-09-20T22:43:49.098Z,13.92
2018-09-20T22:46:18.401Z,13.83
2018-09-20T22:48:49.291Z,13.77
2018-09-20T22:51:18.667Z,13.92
2018-09-20T22:53:48.182Z,13.98
2018-09-20T22:56:17.675Z,13.84
2018-09-20T22:58:47.062Z,13.71
2018-09-20T23:01:17.159Z,13.62
2018-09-20T23:03:46.776Z,13.73
2018-09-20T23:06:15.829Z,13.68
2018-09-20T23:08:45.494Z,13.62
2018-09-20T23:11:14.637Z,13.59
2018-09-20T23:13:43.684Z,13.51
2018-09-20T23:16:12.764Z,13.45
2018-09-20T23:18:41.787Z,13.61
2018-09-20T23:21:11.526Z,13.57
2018-09-20T23:23:40.869Z,13.60
2018-09-20T23:26:10.304Z,13.61
2018-09-20T23:28:39.901Z,13.57
2018-09-20T23:31:09.112Z,13.44
2018-09-20T23:33:38.264Z,13.46
2018-09-20T23:36:07.291Z,13.42
2018-09-20T23:38:36.786Z,13.50
2018-09-20T23:41:06.663Z,13.43
2018-09-20T23:43:35.910Z,13.38
2018-09-20T23:46:05.221Z,13.26
2018-09-20T23:48:34.821Z,13.28
2018-09-20T23:51:03.876Z,13.31
2018-09-20T23:53:32.947Z,13.24
2018-09-20T23:56:01.943Z,13.23
2018-09-20T23:58:31.025Z,13.17
